This is the latest recevied weather packets stored in our database for station/object N7DQ. If no packets are shown the sender has not sent any weather packets the latest 10 day(s).
| Time | Temp. | Humidity | Pressure | Rain* | Wind** | Luminosity | Snow |
|---|---|---|---|---|---|---|---|
| 1778002806 | 15° C | 75% | 1017.4 hPa | 0 mm | - | 197 W/m² | - |
| 1778002506 | 14.44° C | 75% | 1017.4 hPa | 0 mm | - | 190 W/m² | - |
| 1778002206 | 14.44° C | 75% | 1017.3 hPa | 0 mm | - | 186 W/m² | - |
| 1778001906 | 14.44° C | 75% | 1017.3 hPa | 0 mm | - | 188 W/m² | - |
| 1778001606 | 14.44° C | 75% | 1017.3 hPa | 0 mm | - | 183 W/m² | - |
| 1778001306 | 14.44° C | 76% | 1017.2 hPa | 0 mm | - | 176 W/m² | - |
| 1778001006 | 14.44° C | 76% | 1017.2 hPa | 0 mm | - | 174 W/m² | - |
| 1778000706 | 14.44° C | 76% | 1017.2 hPa | 0 mm | - | 199 W/m² | - |
| 1778000406 | 14.44° C | 77% | 1017.2 hPa | 0 mm | - | 218 W/m² | - |
| 1778000106 | 14.44° C | 77% | 1017.1 hPa | 0 mm | - | 199 W/m² | - |
| 1777999806 | 13.89° C | 77% | 1017.1 hPa | 0 mm | - | 172 W/m² | - |
| 1777999506 | 14.44° C | 78% | 1017.1 hPa | 0 mm | - | 156 W/m² | - |
| 1777968606 | 12.78° C | 81% | 1014.7 hPa | 0 mm | - | 0 W/m² | - |
| 1777968306 | 12.78° C | 82% | 1014.7 hPa | 0 mm | - | 0 W/m² | - |
| 1777968006 | 12.78° C | 82% | 1014.7 hPa | 0 mm | - | 0 W/m² | - |
| 1777967706 | 12.78° C | 81% | 1014.6 hPa | 0 mm | - | 0 W/m² | - |
| 1777967406 | 12.78° C | 81% | 1014.5 hPa | 0 mm | - | 0 W/m² | - |
| 1777967105 | 12.78° C | 82% | 1014.5 hPa | 0 mm | - | 0 W/m² | - |
| 1777966805 | 12.78° C | 82% | 1014.3 hPa | 0 mm | - | 0 W/m² | - |
| 1777966505 | 12.78° C | 82% | 1014.4 hPa | 0 mm | - | 0 W/m² | - |
| 1777966205 | 12.78° C | 82% | 1014.3 hPa | 0 mm | - | 0 W/m² | - |
| 1777965905 | 12.78° C | 82% | 1014.3 hPa | 0 mm | - | 0 W/m² | - |
| 1777965606 | 12.78° C | 82% | 1014.3 hPa | 0 mm | - | 0 W/m² | - |
| 1777965305 | 12.78° C | 82% | 1014.3 hPa | 0 mm | - | 0 W/m² | - |
| 1777923606 | 21.67° C | 64% | 1013.1 hPa | 0 mm | - | 868 W/m² | - |
* Rain latest hour (hover to see other rain measurements)
** Current wind speed in m/s (hover to see current wind gust speed)